Airfield :
LOGIN :

Register | Disclaimer

   EN    FR    IT 

 










Legend :    VFR   Marginal VFR   IFR   Intensive IFR   Very Intensive IFR
Visi :
Ceiling :
>= 8 km
>= 3000ft
5 to 8 km
1000 to 3000 ft
1500m to 5 km
500 to 1000 ft
800 to 1500m
200 to 500 ft
< 800m
< 200 ft
Symbols :   Thunderstorms  Fog  Heavy snow  Heavy precipitations  Wind > 20 kt
SIGMETs :     Misc.  Thunderstorms  Icing  Turbulence  Mountain Waves  Volcanic Ashes






- Airport Elevation : 650 ft
- IATA code : ZJI


LSZL - Locarno

CURRENT METAR :
  • 161150Z VRB02KT 9999 FEW065 28/20 Q1013 RMK BLU+

EXPIRED METARs :
  • 161120Z 10004KT 020V160 9999 FEW065 27/20 Q1013 RMK BLU+
  • 161050Z VRB02KT 9999 SCT070 26/20 Q1013 RMK BLU+
  • 161020Z AUTO 07005KT 040V110 9999NDV FEW081 24/19 Q1013 RMK
  • 160950Z 07006KT 030V110 9999 SCT060 SCT085 24/20 Q1014 RMK BLU+
  • 160920Z 08006KT 9999 FEW030 BKN085 23/20 Q1014 RMK BLU
  • 160850Z 05005KT 020V080 9999 -RA FEW030 SCT050 BKN085 22/19 Q1014 RMK BLU
  • 160820Z 05006KT 020V080 9999 FEW015 BKN070 22/19 Q1014 RMK BLU
  • 160750Z 10007KT 9999 FEW015 BKN070 22/19 Q1014 RMK BLU

TAF TAF LSZL
Valid from the 16 at 12:00 until the 16 at 21:00 UTC


161125Z 1612/1621 VRB02KT 9999 FEW060
PROB40
TEMPO 1613/1618 FEW060TCU



MET'MAP, your aeronautical weather chart ! - Copyright ORBIFLY December 2007 - Disclaimer

ORBIFLY MET'MAP TEAM :

Programming & Development : Alexandra Zaïnal
Original concept : Baudouin d'Aumeries
Technical & hardware support : Manuel Goepfert
Assistance : Marc-Olivier Méhu




SOURCES & CREDITS :

   NOAA